Andrew Antrainer — WDI5303 — position and weather

sailwx.info

Track history (hours):
 
Tides and Currents Weather Stations Pressure Air Temp Water Temp Dewpoint Dewpoint Depression Visibility Wind Speed Wind Dir Waves Ship Positions

Andrew Antrainer

Owner: Florida Marine,LLC, Mandeville, LA. More information available from US FCC via Universal Licensing System and Coast Guard Vessel Documentation Center.

Last reported at 2017-Nov-14 12:54 UTC. Time now 2017-Dec-13 22:20 UTC.
Position N 32°57' W 091°05'.
Warning: this ship's position is 29 days out of date.

Length 37 m; draft 3.2 m.

Type: Other ship. MMSI: 367707210.

Date/timePositionNaut miles runAvg speedWind from/ knotsBaromVisibWave heightAir tempDewpointWater temp
2017-Nov-14 12:54N 32°57' W 091°05'13 3.1
2017-Nov-14 08:43N 32°44' W 091°03'4 3.2
2017-Nov-14 07:18N 32°40' W 091°07'2 3.7
2017-Nov-14 06:50N 32°39' W 091°09'1 3.8
2017-Nov-14 06:29N 32°38' W 091°09'2 5.0
2017-Nov-14 06:00N 32°36' W 091°09'2 4.0
2017-Nov-14 05:30N 32°35' W 091°07'2 4.7
2017-Nov-14 05:00N 32°32' W 091°06'3 5.2
2017-Nov-14 04:30N 32°30' W 091°07'2 4.2
2017-Nov-14 04:01N 32°28' W 091°06'2 4.3
2017-Nov-14 03:31N 32°27' W 091°04'2 4.5
2017-Nov-14 03:01N 32°26' W 091°02'2 4.3
2017-Nov-14 02:31N 32°25' W 090°60'2 3.7
2017-Nov-14 02:00N 32°23' W 090°60'2 4.3
2017-Nov-14 01:31N 32°21' W 090°59'3 6.2
2017-Nov-14 01:00N 32°21' W 090°55'2 4.6
2017-Nov-14 00:31N 32°18' W 090°55'1 1.6
2017-Nov-14 00:01N 32°18' W 090°56'1 1.3
2017-Nov-13 23:31N 32°17' W 090°56'2 3.5
2017-Nov-13 23:01N 32°16' W 090°58'2 3.8
2017-Nov-13 22:30N 32°14' W 090°59'2 4.6
2017-Nov-13 22:00N 32°12' W 090°59'  
2017-Nov-11 05:51N 31°58' W 091°11'6 7.6
2017-Nov-11 05:06N 31°60' W 091°05'1 7.9
2017-Nov-11 05:00N 32°00' W 091°05'5 7.2
2017-Nov-11 04:21N 32°05' W 091°05'3 7.9
2017-Nov-11 04:01N 32°07' W 091°07'4 7.3
2017-Nov-11 03:31N 32°07' W 091°02'4 7.2
2017-Nov-11 03:01N 32°10' W 091°00'4 7.9
2017-Nov-11 02:31N 32°14' W 090°59'4 8.1
2017-Nov-11 02:01N 32°17' W 090°56'4 7.0
2017-Nov-11 01:31N 32°20' W 090°54'4 8.3
2017-Nov-11 01:01N 32°21' W 090°59'4 8.3
2017-Nov-11 00:30N 32°25' W 091°00'4 8.3
2017-Nov-11 00:00N 32°27' W 091°05'4 7.6
2017-Nov-10 23:31N 32°30' W 091°07'4 8.1
2017-Nov-10 22:59N 32°34' W 091°07'  
Track history (hours):
 
Tides and Currents Weather Stations Pressure Air Temp Water Temp Dewpoint Dewpoint Depression Visibility Wind Speed Wind Dir Waves Ship Positions

Andrew Antrainer

Owner: Florida Marine,LLC, Mandeville, LA. More information available from US FCC via Universal Licensing System and Coast Guard Vessel Documentation Center.

Last reported at 2017-Nov-14 12:54 UTC. Time now 2017-Dec-13 22:20 UTC.
Position N 32°57' W 091°05'.
Warning: this ship's position is 29 days out of date.

Length 37 m; draft 3.2 m.

Type: Other ship. MMSI: 367707210.

Date/timePositionNaut miles runAvg speedWind from/ knotsBaromVisibWave heightAir tempDewpointWater temp
2017-Nov-14 12:54N 32°57' W 091°05'13 3.1
2017-Nov-14 08:43N 32°44' W 091°03'4 3.2
2017-Nov-14 07:18N 32°40' W 091°07'2 3.7
2017-Nov-14 06:50N 32°39' W 091°09'1 3.8
2017-Nov-14 06:29N 32°38' W 091°09'2 5.0
2017-Nov-14 06:00N 32°36' W 091°09'2 4.0
2017-Nov-14 05:30N 32°35' W 091°07'2 4.7
2017-Nov-14 05:00N 32°32' W 091°06'3 5.2
2017-Nov-14 04:30N 32°30' W 091°07'2 4.2
2017-Nov-14 04:01N 32°28' W 091°06'2 4.3
2017-Nov-14 03:31N 32°27' W 091°04'2 4.5
2017-Nov-14 03:01N 32°26' W 091°02'2 4.3
2017-Nov-14 02:31N 32°25' W 090°60'2 3.7
2017-Nov-14 02:00N 32°23' W 090°60'2 4.3
2017-Nov-14 01:31N 32°21' W 090°59'3 6.2
2017-Nov-14 01:00N 32°21' W 090°55'2 4.6
2017-Nov-14 00:31N 32°18' W 090°55'1 1.6
2017-Nov-14 00:01N 32°18' W 090°56'1 1.3
2017-Nov-13 23:31N 32°17' W 090°56'2 3.5
2017-Nov-13 23:01N 32°16' W 090°58'2 3.8
2017-Nov-13 22:30N 32°14' W 090°59'2 4.6
2017-Nov-13 22:00N 32°12' W 090°59'  
2017-Nov-11 05:51N 31°58' W 091°11'6 7.6
2017-Nov-11 05:06N 31°60' W 091°05'1 7.9
2017-Nov-11 05:00N 32°00' W 091°05'5 7.2
2017-Nov-11 04:21N 32°05' W 091°05'3 7.9
2017-Nov-11 04:01N 32°07' W 091°07'4 7.3
2017-Nov-11 03:31N 32°07' W 091°02'4 7.2
2017-Nov-11 03:01N 32°10' W 091°00'4 7.9
2017-Nov-11 02:31N 32°14' W 090°59'4 8.1
2017-Nov-11 02:01N 32°17' W 090°56'4 7.0
2017-Nov-11 01:31N 32°20' W 090°54'4 8.3
2017-Nov-11 01:01N 32°21' W 090°59'4 8.3
2017-Nov-11 00:30N 32°25' W 091°00'4 8.3
2017-Nov-11 00:00N 32°27' W 091°05'4 7.6
2017-Nov-10 23:31N 32°30' W 091°07'4 8.1
2017-Nov-10 22:59N 32°34' W 091°07'  

Dump ship's entire track history